createdAt,value
2023-04-30T00:01:57.948Z,61.20
2023-04-30T00:03:59.700Z,61.20
2023-04-30T00:06:01.483Z,61.30
2023-04-30T00:08:03.173Z,61.30
2023-04-30T00:10:05.469Z,61.40
2023-04-30T00:12:07.174Z,61.30
2023-04-30T00:14:10.004Z,61.30
2023-04-30T00:16:11.729Z,61.40
2023-04-30T00:18:13.405Z,61.70
2023-04-30T00:20:15.370Z,61.70
2023-04-30T00:22:17.050Z,61.80
2023-04-30T00:24:18.731Z,61.80
2023-04-30T00:26:20.555Z,61.70
2023-04-30T00:28:23.813Z,62.50
2023-04-30T00:30:25.654Z,61.70
2023-04-30T00:32:27.342Z,61.70
2023-04-30T00:34:29.077Z,61.50
2023-04-30T00:36:31.858Z,61.60
2023-04-30T00:38:33.553Z,61.70
2023-04-30T00:40:35.742Z,61.70
2023-04-30T00:42:37.371Z,61.70
2023-04-30T00:44:39.005Z,61.70
2023-04-30T00:46:40.874Z,61.70
2023-04-30T00:48:42.674Z,61.80
2023-04-30T00:50:45.061Z,61.80
2023-04-30T00:52:46.744Z,61.90
2023-04-30T00:54:48.423Z,62.70
2023-04-30T00:56:50.263Z,61.90
2023-04-30T00:58:54.293Z,61.80
2023-04-30T01:00:56.167Z,61.90
2023-04-30T01:02:58.145Z,61.90
2023-04-30T01:05:00.003Z,61.90
2023-04-30T01:07:02.269Z,61.90
2023-04-30T01:09:04.029Z,61.90
2023-04-30T01:11:10.279Z,62.10
2023-04-30T01:13:26.487Z,62.10
2023-04-30T01:15:48.445Z,61.90
2023-04-30T01:17:55.808Z,61.90
2023-04-30T01:19:57.753Z,62.00
2023-04-30T01:22:01.642Z,62.00
2023-04-30T01:24:21.737Z,62.10
2023-04-30T01:26:41.861Z,62.00
2023-04-30T01:28:44.580Z,62.10
2023-04-30T01:30:47.066Z,62.00
2023-04-30T01:32:48.936Z,62.10
2023-04-30T01:34:50.814Z,62.10
2023-04-30T01:37:08.864Z,62.20
2023-04-30T01:39:19.439Z,62.20
2023-04-30T01:41:31.016Z,61.90
2023-04-30T01:43:52.909Z,61.90
2023-04-30T01:46:02.698Z,61.90
2023-04-30T01:48:04.365Z,61.90
2023-04-30T01:50:14.954Z,61.90
2023-04-30T01:52:25.016Z,61.80
2023-04-30T01:54:33.047Z,61.80
2023-04-30T01:56:41.328Z,61.80
2023-04-30T01:58:43.650Z,61.70
2023-04-30T02:00:45.432Z,61.80
2023-04-30T02:02:47.364Z,61.80
2023-04-30T02:04:49.065Z,61.70
2023-04-30T02:06:50.848Z,61.70
2023-04-30T02:08:52.550Z,61.70
2023-04-30T02:10:54.207Z,61.80
2023-04-30T02:12:56.000Z,61.70
2023-04-30T02:14:57.717Z,61.80
2023-04-30T02:16:59.367Z,61.70
2023-04-30T02:19:01.672Z,61.50
2023-04-30T02:21:03.375Z,61.60
2023-04-30T02:23:04.984Z,61.60
2023-04-30T02:25:07.133Z,61.70
2023-04-30T02:27:08.778Z,61.70
2023-04-30T02:29:10.462Z,61.70
2023-04-30T02:31:12.319Z,61.60
2023-04-30T02:33:14.186Z,61.70
2023-04-30T02:35:15.858Z,61.50
2023-04-30T02:37:17.644Z,61.50
2023-04-30T02:39:19.238Z,61.40
2023-04-30T02:41:21.651Z,61.50
2023-04-30T02:43:23.392Z,61.70
2023-04-30T02:45:25.349Z,61.60
2023-04-30T02:47:27.176Z,61.70
2023-04-30T02:49:29.306Z,61.70
2023-04-30T02:51:32.571Z,61.70
2023-04-30T02:53:34.427Z,61.70
2023-04-30T02:55:36.364Z,61.60
2023-04-30T02:57:38.019Z,61.50
2023-04-30T02:59:39.733Z,61.50
2023-04-30T03:01:41.541Z,61.50
2023-04-30T03:03:43.260Z,61.50
2023-04-30T03:05:44.890Z,61.50
2023-04-30T03:07:46.540Z,61.60
2023-04-30T03:09:48.208Z,61.60
2023-04-30T03:11:49.870Z,61.50
2023-04-30T03:13:51.628Z,61.60
2023-04-30T03:15:57.834Z,61.70
2023-04-30T03:17:59.593Z,61.70
2023-04-30T03:20:01.260Z,61.50
2023-04-30T03:22:02.914Z,61.50
2023-04-30T03:24:05.206Z,61.50
2023-04-30T03:26:06.962Z,61.50
2023-04-30T03:28:08.603Z,61.60
2023-04-30T03:30:10.563Z,61.70
2023-04-30T03:32:12.199Z,61.70
2023-04-30T03:34:13.878Z,61.70
2023-04-30T03:36:15.801Z,61.60
2023-04-30T03:38:17.647Z,61.60
2023-04-30T03:40:19.538Z,61.70
2023-04-30T03:42:21.161Z,61.60
2023-04-30T03:44:23.246Z,61.70
2023-04-30T03:46:25.070Z,61.70
2023-04-30T03:48:27.176Z,61.70
2023-04-30T03:50:28.895Z,61.60
2023-04-30T03:52:31.461Z,61.70
2023-04-30T03:54:36.071Z,61.60
2023-04-30T03:56:38.043Z,61.70
2023-04-30T03:58:40.147Z,61.60
2023-04-30T04:00:41.946Z,61.60
2023-04-30T04:02:44.780Z,61.70
2023-04-30T04:04:46.900Z,61.60
2023-04-30T04:06:48.618Z,61.60
2023-04-30T04:08:50.461Z,61.60
2023-04-30T04:10:52.198Z,61.50
2023-04-30T04:12:53.941Z,61.50
2023-04-30T04:14:55.803Z,61.60
2023-04-30T04:16:59.886Z,61.60
2023-04-30T04:19:01.585Z,61.60
2023-04-30T04:21:04.366Z,61.60
2023-04-30T04:23:06.542Z,61.50
2023-04-30T04:25:08.755Z,61.50
2023-04-30T04:27:10.641Z,61.70
2023-04-30T04:29:12.422Z,61.60
2023-04-30T04:31:15.844Z,61.60
2023-04-30T04:33:17.545Z,61.50
2023-04-30T04:35:19.551Z,61.50
2023-04-30T04:37:21.729Z,61.60
2023-04-30T04:39:23.543Z,61.60
2023-04-30T04:41:26.557Z,61.60
2023-04-30T04:43:28.478Z,61.60
2023-04-30T04:45:31.343Z,61.60
2023-04-30T04:47:33.482Z,61.60
2023-04-30T04:49:35.353Z,61.60
2023-04-30T04:51:37.092Z,61.60
2023-04-30T04:53:38.881Z,61.70
2023-04-30T04:55:40.979Z,61.70
2023-04-30T04:57:43.220Z,61.80
2023-04-30T04:59:45.109Z,61.70
2023-04-30T05:01:46.948Z,61.80
2023-04-30T05:03:49.448Z,61.80
2023-04-30T05:05:51.633Z,62.00
2023-04-30T05:07:54.929Z,62.00
2023-04-30T05:09:56.885Z,62.00
2023-04-30T05:11:58.690Z,62.00
2023-04-30T05:14:00.291Z,62.00
2023-04-30T05:16:01.932Z,61.90
2023-04-30T05:18:03.742Z,61.90
2023-04-30T05:20:07.348Z,61.80
2023-04-30T05:22:09.191Z,61.80
2023-04-30T05:24:10.907Z,61.80
2023-04-30T05:26:12.593Z,61.90
2023-04-30T05:28:14.197Z,61.80
2023-04-30T05:30:15.841Z,61.80
2023-04-30T05:32:17.511Z,61.80
2023-04-30T05:34:19.227Z,61.80
2023-04-30T05:36:20.873Z,61.70
2023-04-30T05:38:22.586Z,61.60
2023-04-30T05:40:24.257Z,61.70
2023-04-30T05:42:25.848Z,61.70
2023-04-30T05:44:30.306Z,61.70
2023-04-30T05:46:32.206Z,61.70
2023-04-30T05:48:33.915Z,61.60
2023-04-30T05:50:35.621Z,61.60
2023-04-30T05:52:37.261Z,61.70
2023-04-30T05:54:38.984Z,61.70
2023-04-30T05:56:40.700Z,61.60
2023-04-30T05:58:42.356Z,61.60
2023-04-30T06:00:43.977Z,61.60
2023-04-30T06:02:45.919Z,61.60
2023-04-30T06:04:47.852Z,61.50
2023-04-30T06:06:49.566Z,61.50
2023-04-30T06:08:51.216Z,61.60
2023-04-30T06:10:52.905Z,61.60
2023-04-30T06:12:54.599Z,61.60
2023-04-30T06:14:56.297Z,61.30
2023-04-30T06:16:57.934Z,61.40
2023-04-30T06:18:59.810Z,61.60
2023-04-30T06:21:01.450Z,61.50
2023-04-30T06:23:03.849Z,61.50
2023-04-30T06:25:05.880Z,61.50
2023-04-30T06:27:07.658Z,61.60
2023-04-30T06:29:09.319Z,61.60
2023-04-30T06:31:11.218Z,61.60
2023-04-30T06:33:12.901Z,61.60
2023-04-30T06:35:14.804Z,61.80
2023-04-30T06:37:16.522Z,61.70
2023-04-30T06:39:18.227Z,61.60
2023-04-30T06:41:20.835Z,61.70
2023-04-30T06:43:22.461Z,61.70
2023-04-30T06:45:24.087Z,61.80
2023-04-30T06:47:25.740Z,61.80
2023-04-30T06:49:27.390Z,61.80
2023-04-30T06:51:29.044Z,61.70
2023-04-30T06:53:30.732Z,61.70
2023-04-30T06:55:32.380Z,61.60
2023-04-30T06:57:34.038Z,61.70
2023-04-30T06:59:35.747Z,61.70
2023-04-30T07:01:37.427Z,61.60
2023-04-30T07:03:39.224Z,61.50
2023-04-30T07:05:41.605Z,61.40
2023-04-30T07:07:43.223Z,60.70
2023-04-30T07:09:44.906Z,61.20
2023-04-30T07:11:46.480Z,61.30
2023-04-30T07:13:48.162Z,61.20
2023-04-30T07:15:49.959Z,61.20
2023-04-30T07:17:51.655Z,61.30
2023-04-30T07:19:53.449Z,61.40
2023-04-30T07:21:55.229Z,61.50
2023-04-30T07:23:56.806Z,61.50
2023-04-30T07:25:59.007Z,61.50
2023-04-30T07:28:00.841Z,61.40
2023-04-30T07:30:02.604Z,61.60
2023-04-30T07:32:04.901Z,61.40
2023-04-30T07:34:06.613Z,61.40
2023-04-30T07:36:08.212Z,61.40
2023-04-30T07:38:09.909Z,61.30
2023-04-30T07:40:22.003Z,61.20
2023-04-30T07:42:30.493Z,61.20
2023-04-30T07:44:32.334Z,60.80
2023-04-30T07:46:34.269Z,60.90
2023-04-30T07:48:36.055Z,60.90
2023-04-30T07:50:37.804Z,60.80
2023-04-30T07:52:39.507Z,60.90
2023-04-30T07:54:41.214Z,61.00
2023-04-30T07:56:43.040Z,61.00
2023-04-30T07:58:44.749Z,60.90
2023-04-30T08:00:46.697Z,61.00
2023-04-30T08:02:49.959Z,60.80
2023-04-30T08:04:51.830Z,60.20
2023-04-30T08:06:53.493Z,60.20
2023-04-30T08:08:55.462Z,60.20
2023-04-30T08:10:57.345Z,60.20
2023-04-30T08:12:59.180Z,60.20
2023-04-30T08:15:05.112Z,60.20
2023-04-30T08:17:06.881Z,60.10
2023-04-30T08:19:08.544Z,60.40
2023-04-30T08:21:11.521Z,60.50
2023-04-30T08:23:13.240Z,60.50
2023-04-30T08:25:14.949Z,60.50
2023-04-30T08:27:16.685Z,61.40
2023-04-30T08:29:18.345Z,60.40
2023-04-30T08:31:21.611Z,60.40
2023-04-30T08:33:23.351Z,60.00
2023-04-30T08:35:25.210Z,59.30
2023-04-30T08:37:26.831Z,59.60
2023-04-30T08:39:28.480Z,59.50
2023-04-30T08:41:32.239Z,59.50
2023-04-30T08:43:35.449Z,59.60
2023-04-30T08:45:37.141Z,59.90
2023-04-30T08:47:39.329Z,59.90
2023-04-30T08:49:41.456Z,59.60
2023-04-30T08:51:43.227Z,59.60
2023-04-30T08:53:45.831Z,59.80
2023-04-30T08:55:47.925Z,59.30
2023-04-30T08:57:49.658Z,59.00
2023-04-30T08:59:51.481Z,59.20
2023-04-30T09:01:54.024Z,57.80
2023-04-30T09:03:57.573Z,58.60
2023-04-30T09:05:59.842Z,58.60
2023-04-30T09:08:04.087Z,58.10
2023-04-30T09:10:14.185Z,58.10
2023-04-30T09:12:20.002Z,58.10
2023-04-30T09:14:26.636Z,57.70
2023-04-30T09:16:33.129Z,57.80
2023-04-30T09:18:39.108Z,58.60
2023-04-30T09:21:03.642Z,58.20
2023-04-30T09:23:06.395Z,58.50
2023-04-30T09:25:08.680Z,58.40
2023-04-30T09:27:20.143Z,58.70
2023-04-30T09:29:21.819Z,58.60
2023-04-30T09:31:25.003Z,58.60
2023-04-30T09:33:26.814Z,58.60
2023-04-30T09:35:29.404Z,58.60
2023-04-30T09:37:37.629Z,58.60
2023-04-30T09:39:57.775Z,58.60
2023-04-30T09:42:11.721Z,58.40
2023-04-30T09:44:32.693Z,58.40
2023-04-30T09:46:35.844Z,58.40
2023-04-30T09:48:41.088Z,58.60
2023-04-30T09:50:43.564Z,58.40
2023-04-30T09:53:05.049Z,58.30
2023-04-30T09:55:07.673Z,58.10
2023-04-30T09:57:11.036Z,58.10
2023-04-30T09:59:13.420Z,58.00
2023-04-30T10:01:16.170Z,58.50
2023-04-30T10:03:18.753Z,58.20
2023-04-30T10:05:20.671Z,58.30
2023-04-30T10:07:24.508Z,58.40
2023-04-30T10:09:31.869Z,58.30
2023-04-30T10:11:35.699Z,57.90
2023-04-30T10:13:45.664Z,58.00
2023-04-30T10:15:51.857Z,57.70
2023-04-30T10:18:05.060Z,57.70
2023-04-30T10:20:08.732Z,57.40
2023-04-30T10:22:11.218Z,57.20
2023-04-30T10:24:14.029Z,55.20
2023-04-30T10:26:16.951Z,56.00
2023-04-30T10:28:19.323Z,56.50
2023-04-30T10:30:22.194Z,56.80
2023-04-30T10:32:24.539Z,56.70
2023-04-30T10:34:27.027Z,56.70
2023-04-30T10:36:33.867Z,56.80
2023-04-30T10:38:36.170Z,57.00
2023-04-30T10:40:38.553Z,56.30
2023-04-30T10:42:45.517Z,56.40
2023-04-30T10:44:48.663Z,56.70
2023-04-30T10:46:58.391Z,56.40
2023-04-30T10:49:00.710Z,55.60
2023-04-30T10:51:02.536Z,56.70
2023-04-30T10:53:04.704Z,56.10
2023-04-30T10:55:07.579Z,56.40
2023-04-30T10:57:14.172Z,56.70
2023-04-30T10:59:15.985Z,56.40
2023-04-30T11:01:17.913Z,56.10
2023-04-30T11:03:22.160Z,56.10
2023-04-30T11:05:50.200Z,56.60
2023-04-30T11:07:56.209Z,56.40
2023-04-30T11:09:58.058Z,56.00
2023-04-30T11:12:03.793Z,56.40
2023-04-30T11:14:05.669Z,55.90
2023-04-30T11:16:07.563Z,55.90
2023-04-30T11:18:09.831Z,55.80
2023-04-30T11:20:18.714Z,55.80
2023-04-30T11:22:24.534Z,56.10
2023-04-30T11:24:44.737Z,55.70
2023-04-30T11:27:03.368Z,55.60
2023-04-30T11:29:05.464Z,56.10
2023-04-30T11:31:07.369Z,55.70
2023-04-30T11:33:09.949Z,55.40
2023-04-30T11:35:11.806Z,55.60
2023-04-30T11:37:17.311Z,56.30
2023-04-30T11:39:20.827Z,56.30
2023-04-30T11:41:23.310Z,55.70
2023-04-30T11:43:26.307Z,56.00
2023-04-30T11:45:28.321Z,56.60
2023-04-30T11:47:38.563Z,55.80
2023-04-30T11:49:40.643Z,55.70
2023-04-30T11:51:42.470Z,56.30
2023-04-30T11:53:45.846Z,55.80
2023-04-30T11:55:47.568Z,55.30
2023-04-30T11:57:50.346Z,55.30
2023-04-30T11:59:52.047Z,55.20
2023-04-30T12:01:54.098Z,55.20
2023-04-30T12:03:57.446Z,54.80
2023-04-30T12:05:59.490Z,54.80
2023-04-30T12:08:04.669Z,55.70
2023-04-30T12:10:06.727Z,55.60
2023-04-30T12:12:08.420Z,55.30
2023-04-30T12:14:11.005Z,55.00
2023-04-30T12:16:12.756Z,55.30
2023-04-30T12:18:15.594Z,54.90
2023-04-30T12:20:18.653Z,54.80
2023-04-30T12:22:20.609Z,55.40
2023-04-30T12:24:23.707Z,55.20
2023-04-30T12:26:33.920Z,55.30
2023-04-30T12:28:36.432Z,55.90
2023-04-30T12:30:38.265Z,56.20
2023-04-30T12:32:41.085Z,56.10
2023-04-30T12:34:42.899Z,55.30
2023-04-30T12:36:44.602Z,56.00
2023-04-30T12:38:47.223Z,55.40
2023-04-30T12:40:49.154Z,56.10
2023-04-30T12:42:51.555Z,55.70
2023-04-30T12:44:53.308Z,56.40
2023-04-30T12:47:00.667Z,55.70
2023-04-30T12:49:02.695Z,54.70
2023-04-30T12:51:05.286Z,54.90
2023-04-30T12:53:10.195Z,53.30
2023-04-30T12:55:19.019Z,54.30
2023-04-30T12:57:21.156Z,53.90
2023-04-30T12:59:22.836Z,54.20
2023-04-30T13:01:25.454Z,54.70
2023-04-30T13:03:27.304Z,53.70
2023-04-30T13:05:29.117Z,54.00
2023-04-30T13:07:38.713Z,54.90
2023-04-30T13:09:40.763Z,54.20
2023-04-30T13:11:42.421Z,54.20
2023-04-30T13:13:44.103Z,54.00
2023-04-30T13:15:45.902Z,54.40
2023-04-30T13:17:47.689Z,52.90
2023-04-30T13:19:50.179Z,53.40
2023-04-30T13:21:51.900Z,53.80
2023-04-30T13:23:54.911Z,53.80
2023-04-30T13:25:57.829Z,53.50
2023-04-30T13:27:59.555Z,53.50
2023-04-30T13:30:02.298Z,53.50
2023-04-30T13:32:04.326Z,52.50
2023-04-30T13:34:06.432Z,53.20
2023-04-30T13:36:08.243Z,53.00
2023-04-30T13:38:10.225Z,52.80
2023-04-30T13:40:12.165Z,52.30
2023-04-30T13:42:14.089Z,52.90
2023-04-30T13:44:16.988Z,51.90
2023-04-30T13:46:19.056Z,53.00
2023-04-30T13:48:20.745Z,52.60
2023-04-30T13:50:22.442Z,53.00
2023-04-30T13:52:24.125Z,52.40
2023-04-30T13:54:25.822Z,53.10
2023-04-30T13:56:27.650Z,52.10
2023-04-30T13:58:29.294Z,52.00
2023-04-30T14:00:31.031Z,51.70
2023-04-30T14:02:32.868Z,52.00
2023-04-30T14:04:34.655Z,52.60
2023-04-30T14:06:36.964Z,52.30
2023-04-30T14:08:38.654Z,50.90
2023-04-30T14:10:40.317Z,50.70
2023-04-30T14:12:42.025Z,51.30
2023-04-30T14:14:43.719Z,47.10
2023-04-30T14:16:45.437Z,50.10
2023-04-30T14:18:47.545Z,50.10
2023-04-30T14:20:49.447Z,50.40
2023-04-30T14:22:51.120Z,50.30
2023-04-30T14:24:53.350Z,50.10
2023-04-30T14:26:55.156Z,50.30
2023-04-30T14:28:57.283Z,50.40
2023-04-30T14:30:59.016Z,49.70
2023-04-30T14:33:00.801Z,49.90
2023-04-30T14:35:03.441Z,45.80
2023-04-30T14:37:05.409Z,47.40
2023-04-30T14:39:07.368Z,48.80
2023-04-30T14:41:09.082Z,49.40
2023-04-30T14:43:10.963Z,49.60
2023-04-30T14:45:12.766Z,49.30
2023-04-30T14:47:14.632Z,50.20
2023-04-30T14:49:16.705Z,49.80
2023-04-30T14:51:18.517Z,49.20
2023-04-30T14:53:20.297Z,50.20
2023-04-30T14:55:22.042Z,49.80
2023-04-30T14:57:23.760Z,49.40
2023-04-30T14:59:25.569Z,49.90
2023-04-30T15:01:28.695Z,50.10
2023-04-30T15:03:31.218Z,50.20
2023-04-30T15:05:33.168Z,50.40
2023-04-30T15:07:34.828Z,49.70
2023-04-30T15:09:36.573Z,50.00
2023-04-30T15:11:38.339Z,49.80
2023-04-30T15:13:40.275Z,49.40
2023-04-30T15:15:42.185Z,49.30
2023-04-30T15:17:43.954Z,49.50
2023-04-30T15:19:45.842Z,49.10
2023-04-30T15:21:48.963Z,48.90
2023-04-30T15:23:50.998Z,49.00
2023-04-30T15:25:53.036Z,49.50
2023-04-30T15:27:54.868Z,49.30
2023-04-30T15:29:56.958Z,49.30
2023-04-30T15:31:59.766Z,49.10
2023-04-30T15:34:01.672Z,49.40
2023-04-30T15:36:03.933Z,48.60
2023-04-30T15:38:05.608Z,48.50
2023-04-30T15:40:08.413Z,49.40
2023-04-30T15:42:10.204Z,48.80
2023-04-30T15:44:12.039Z,47.50
2023-04-30T15:46:13.869Z,48.10
2023-04-30T15:48:15.844Z,47.70
2023-04-30T15:50:17.567Z,48.30
2023-04-30T15:52:19.389Z,48.80
2023-04-30T15:54:21.195Z,49.00
2023-04-30T15:56:25.732Z,48.30
2023-04-30T15:58:27.524Z,48.30
2023-04-30T16:00:29.286Z,47.00
2023-04-30T16:02:31.401Z,46.10
2023-04-30T16:04:33.197Z,47.60
2023-04-30T16:06:35.550Z,47.30
2023-04-30T16:08:37.338Z,47.70
2023-04-30T16:10:39.184Z,47.40
2023-04-30T16:12:41.220Z,47.60
2023-04-30T16:14:42.923Z,47.60
2023-04-30T16:16:44.692Z,47.60
2023-04-30T16:18:46.405Z,47.60
2023-04-30T16:20:48.680Z,47.50
2023-04-30T16:22:50.595Z,47.10
2023-04-30T16:24:52.336Z,46.60
2023-04-30T16:26:54.066Z,47.20
2023-04-30T16:28:55.729Z,46.90
2023-04-30T16:30:58.127Z,46.90
2023-04-30T16:32:59.986Z,47.10
2023-04-30T16:35:01.729Z,46.70
2023-04-30T16:37:03.718Z,46.30
2023-04-30T16:39:05.848Z,46.90
2023-04-30T16:41:07.616Z,47.20
2023-04-30T16:43:09.572Z,46.70
2023-04-30T16:45:11.298Z,46.90
2023-04-30T16:47:13.124Z,47.20
2023-04-30T16:49:15.026Z,47.80
2023-04-30T16:51:16.791Z,47.10
2023-04-30T16:53:18.473Z,46.80
2023-04-30T16:55:20.242Z,47.20
2023-04-30T16:57:22.736Z,47.10
2023-04-30T16:59:24.677Z,47.00
2023-04-30T17:01:26.540Z,46.80
2023-04-30T17:03:29.803Z,46.70
2023-04-30T17:05:31.845Z,47.00
2023-04-30T17:07:33.497Z,47.40
2023-04-30T17:09:36.716Z,47.20
2023-04-30T17:11:38.407Z,47.10
2023-04-30T17:13:40.129Z,47.30
2023-04-30T17:15:42.707Z,46.90
2023-04-30T17:17:44.521Z,47.30
2023-04-30T17:19:46.435Z,47.20
2023-04-30T17:21:50.097Z,47.50
2023-04-30T17:23:51.973Z,47.50
2023-04-30T17:25:53.749Z,47.30
2023-04-30T17:27:58.339Z,47.10
2023-04-30T17:30:00.332Z,46.80
2023-04-30T17:32:02.088Z,47.00
2023-04-30T17:34:03.821Z,46.60
2023-04-30T17:36:05.662Z,46.90
2023-04-30T17:38:07.474Z,47.30
2023-04-30T17:40:09.510Z,47.70
2023-04-30T17:42:13.043Z,47.80
2023-04-30T17:44:15.573Z,48.20
2023-04-30T17:46:17.429Z,48.30
2023-04-30T17:48:19.564Z,48.60
2023-04-30T17:50:21.262Z,48.70
2023-04-30T17:52:22.900Z,48.90
2023-04-30T17:54:25.369Z,48.90
2023-04-30T17:56:28.550Z,48.90
2023-04-30T17:58:30.452Z,48.90
2023-04-30T18:00:32.663Z,48.80
2023-04-30T18:02:34.514Z,49.10
2023-04-30T18:04:36.355Z,49.10
2023-04-30T18:06:38.312Z,49.00
2023-04-30T18:08:40.122Z,49.10
2023-04-30T18:10:41.847Z,49.20
2023-04-30T18:12:44.696Z,49.30
2023-04-30T18:14:46.552Z,49.30
2023-04-30T18:16:48.362Z,49.40
2023-04-30T18:18:50.101Z,49.40
2023-04-30T18:20:53.073Z,49.50
2023-04-30T18:22:54.998Z,49.50
2023-04-30T18:24:57.083Z,49.60
2023-04-30T18:26:58.831Z,49.90
2023-04-30T18:29:00.616Z,49.80
2023-04-30T18:31:02.596Z,49.90
2023-04-30T18:33:04.991Z,50.00
2023-04-30T18:35:06.926Z,49.90
2023-04-30T18:37:08.767Z,50.00
2023-04-30T18:39:13.426Z,50.00
2023-04-30T18:41:15.381Z,49.90
2023-04-30T18:43:17.309Z,50.20
2023-04-30T18:45:19.123Z,50.40
2023-04-30T18:47:24.175Z,50.50
2023-04-30T18:49:26.220Z,50.50
2023-04-30T18:51:29.440Z,50.50
2023-04-30T18:53:31.328Z,50.70
2023-04-30T18:55:33.306Z,50.70
2023-04-30T18:57:35.275Z,50.80
2023-04-30T18:59:39.139Z,50.90
2023-04-30T19:01:41.113Z,51.60
2023-04-30T19:03:43.135Z,51.00
2023-04-30T19:05:45.156Z,51.20
2023-04-30T19:07:47.040Z,51.20
2023-04-30T19:09:51.732Z,51.40
2023-04-30T19:11:53.589Z,51.30
2023-04-30T19:13:55.719Z,51.30
2023-04-30T19:15:57.460Z,51.40
2023-04-30T19:17:59.382Z,51.30
2023-04-30T19:20:01.109Z,51.40
2023-04-30T19:22:03.930Z,51.50
2023-04-30T19:24:26.657Z,51.50
2023-04-30T19:26:28.568Z,51.60
2023-04-30T19:28:30.386Z,51.70
2023-04-30T19:30:32.698Z,51.80
2023-04-30T19:32:34.577Z,51.80
2023-04-30T19:34:37.283Z,51.90
2023-04-30T19:36:39.351Z,51.90
2023-04-30T19:38:41.369Z,51.90
2023-04-30T19:40:46.830Z,52.10
2023-04-30T19:42:48.553Z,52.10
2023-04-30T19:44:51.653Z,52.10
2023-04-30T19:46:53.451Z,52.20
2023-04-30T19:48:58.068Z,52.20
2023-04-30T19:51:05.266Z,52.30
2023-04-30T19:53:09.342Z,52.30
2023-04-30T19:55:19.996Z,52.40
2023-04-30T19:57:26.335Z,52.40
2023-04-30T19:59:31.704Z,52.40
2023-04-30T20:01:33.521Z,52.50
2023-04-30T20:03:35.739Z,52.40
2023-04-30T20:05:39.371Z,52.60
2023-04-30T20:07:42.189Z,52.60
2023-04-30T20:09:46.605Z,52.60
2023-04-30T20:11:50.812Z,52.70
2023-04-30T20:13:54.161Z,52.80
2023-04-30T20:15:56.352Z,52.80
2023-04-30T20:18:04.342Z,53.00
2023-04-30T20:20:08.832Z,53.00
2023-04-30T20:22:15.620Z,53.10
2023-04-30T20:24:18.179Z,53.10
2023-04-30T20:26:28.603Z,53.70
2023-04-30T20:28:32.019Z,53.10
2023-04-30T20:30:36.817Z,53.20
2023-04-30T20:32:42.183Z,53.20
2023-04-30T20:34:52.394Z,53.20
2023-04-30T20:37:03.257Z,53.30
2023-04-30T20:39:09.820Z,53.40
2023-04-30T20:41:21.803Z,53.40
2023-04-30T20:43:31.190Z,53.40
2023-04-30T20:45:37.813Z,53.50
2023-04-30T20:47:39.869Z,53.50
2023-04-30T20:49:43.488Z,53.40
2023-04-30T20:51:45.377Z,53.50
2023-04-30T20:53:47.203Z,53.80
2023-04-30T20:55:49.007Z,53.70
2023-04-30T20:57:56.347Z,53.80
2023-04-30T21:00:00.724Z,53.70
2023-04-30T21:02:03.686Z,53.70
2023-04-30T21:04:05.596Z,53.70
2023-04-30T21:06:07.707Z,53.80
2023-04-30T21:08:09.503Z,53.80
2023-04-30T21:10:12.565Z,53.90
2023-04-30T21:12:14.350Z,54.00
2023-04-30T21:14:16.124Z,53.90
2023-04-30T21:16:18.276Z,54.10
2023-04-30T21:18:20.071Z,54.10
2023-04-30T21:20:21.777Z,54.20
2023-04-30T21:22:24.037Z,54.10
2023-04-30T21:24:25.798Z,54.20
2023-04-30T21:26:27.756Z,54.20
2023-04-30T21:28:29.489Z,54.20
2023-04-30T21:30:31.317Z,54.30
2023-04-30T21:32:33.171Z,54.20
2023-04-30T21:34:34.940Z,54.40
2023-04-30T21:36:37.480Z,54.40
2023-04-30T21:38:39.184Z,54.50
2023-04-30T21:40:42.487Z,54.40
2023-04-30T21:42:44.174Z,54.40
2023-04-30T21:44:45.918Z,54.50
2023-04-30T21:46:47.821Z,54.50
2023-04-30T21:48:49.810Z,54.60
2023-04-30T21:50:51.460Z,54.50
2023-04-30T21:52:53.361Z,54.70
2023-04-30T21:54:55.164Z,54.50
2023-04-30T21:56:56.862Z,54.50
2023-04-30T21:58:58.568Z,54.60
2023-04-30T22:01:00.694Z,54.70
2023-04-30T22:03:02.483Z,54.60
2023-04-30T22:05:04.318Z,54.70
2023-04-30T22:07:05.950Z,54.60
2023-04-30T22:09:07.628Z,54.70
2023-04-30T22:11:09.272Z,54.70
2023-04-30T22:13:11.032Z,54.70
2023-04-30T22:15:12.769Z,54.70
2023-04-30T22:17:14.430Z,54.70
2023-04-30T22:19:16.295Z,54.80
2023-04-30T22:21:17.931Z,54.70
2023-04-30T22:23:21.306Z,54.70
2023-04-30T22:25:23.126Z,54.60
2023-04-30T22:27:24.932Z,54.70
2023-04-30T22:29:26.917Z,54.70
2023-04-30T22:31:29.296Z,54.40
2023-04-30T22:33:37.707Z,54.50
2023-04-30T22:35:39.496Z,54.50
2023-04-30T22:37:41.199Z,54.60
2023-04-30T22:39:43.051Z,54.70
2023-04-30T22:41:47.774Z,54.60
2023-04-30T22:43:49.492Z,54.60
2023-04-30T22:45:51.178Z,54.70
2023-04-30T22:47:53.469Z,54.70
2023-04-30T22:49:55.879Z,54.60
2023-04-30T22:51:57.872Z,54.60
2023-04-30T22:53:59.796Z,54.60
2023-04-30T22:56:01.515Z,54.60
2023-04-30T22:58:03.188Z,54.70
2023-04-30T23:00:05.276Z,54.60
2023-04-30T23:02:07.031Z,54.60
2023-04-30T23:04:09.378Z,54.60
2023-04-30T23:06:11.724Z,54.60
2023-04-30T23:08:13.674Z,54.60
2023-04-30T23:10:15.832Z,54.70
2023-04-30T23:12:17.532Z,54.60
2023-04-30T23:14:19.214Z,54.60
2023-04-30T23:16:20.960Z,54.70
2023-04-30T23:18:23.848Z,54.60
2023-04-30T23:20:25.643Z,54.70
2023-04-30T23:22:27.366Z,54.80
2023-04-30T23:24:29.167Z,54.80
2023-04-30T23:26:30.912Z,55.50
2023-04-30T23:28:32.836Z,54.80
2023-04-30T23:30:37.301Z,54.90
2023-04-30T23:32:39.097Z,54.90
2023-04-30T23:34:40.883Z,54.80
2023-04-30T23:36:42.974Z,54.90
2023-04-30T23:38:46.576Z,54.90
2023-04-30T23:40:48.270Z,55.00
2023-04-30T23:42:49.945Z,55.10
2023-04-30T23:44:51.566Z,55.00
2023-04-30T23:46:53.759Z,55.00
2023-04-30T23:48:56.110Z,55.00
2023-04-30T23:51:01.942Z,55.00
2023-04-30T23:53:03.624Z,55.00
2023-04-30T23:55:05.548Z,55.00
2023-04-30T23:57:10.049Z,55.00
2023-04-30T23:59:12.367Z,55.10
